Time;durP1;ratioP1;P1;durP2;ratioP2;P2;SDS_P1;SDS_P2;PMS_P1;PMS_P2;Temp;Humidity;BMP_temperature;BMP_pressure;BME280_temperature;BME280_humidity;BME280_pressure;Samples;Min_cycle;Max_cycle;Signal;HPM_P1;HPM_P2
2022/06/13 00:00:33;;;;;;;7.57;2.00;;;;;;;;;;4939436;28;20120;-65
2022/06/13 00:03:00;;;;;;;7.65;2.00;;;;;;;;;;4951543;28;20450;-65
2022/06/13 00:05:27;;;;;;;10.18;2.67;;;;;;;;;;4955593;28;20065;-65
2022/06/13 00:07:54;;;;;;;9.85;1.90;;;;;;;;;;4952683;28;20188;-65
2022/06/13 00:10:22;;;;;;;7.47;1.73;;;;;;;;;;4935985;28;20120;-65
2022/06/13 00:12:50;;;;;;;9.88;2.42;;;;;;;;;;4947805;28;20034;-66
2022/06/13 00:15:16;;;;;;;9.68;2.15;;;;;;;;;;4946208;28;20078;-65
2022/06/13 00:17:44;;;;;;;10.18;2.30;;;;;;;;;;4949715;28;20468;-66
2022/06/13 00:20:12;;;;;;;9.70;2.03;;;;;;;;;;4953012;28;20532;-67
2022/06/13 00:22:40;;;;;;;8.90;2.30;;;;;;;;;;4952530;28;20065;-67
2022/06/13 00:25:06;;;;;;;8.15;1.90;;;;;;;;;;4955160;28;20400;-67
2022/06/13 00:27:33;;;;;;;7.68;1.85;;;;;;;;;;4945376;28;20462;-67
2022/06/13 00:30:00;;;;;;;10.10;2.00;;;;;;;;;;4930746;28;20491;-66
2022/06/13 00:32:26;;;;;;;8.18;1.98;;;;;;;;;;4934522;28;20370;-65
2022/06/13 00:34:55;;;;;;;8.23;1.90;;;;;;;;;;4931538;28;20058;-67
2022/06/13 00:37:22;;;;;;;5.70;1.42;;;;;;;;;;4935238;28;20141;-67
2022/06/13 00:39:50;;;;;;;8.90;1.90;;;;;;;;;;4932109;28;20485;-67
2022/06/13 00:42:18;;;;;;;8.73;1.70;;;;;;;;;;4935227;28;20039;-65
2022/06/13 00:45:06;;;;;;;7.47;1.77;;;;;;;;;;4933586;28;20034;-65
2022/06/13 00:47:34;;;;;;;6.95;1.80;;;;;;;;;;4935239;28;20481;-65
2022/06/13 00:50:04;;;;;;;9.25;1.83;;;;;;;;;;4936921;28;20234;-65
2022/06/13 00:52:38;;;;;;;7.53;1.80;;;;;;;;;;4941033;28;20034;-66
2022/06/13 00:55:05;;;;;;;8.02;1.70;;;;;;;;;;4934882;28;20041;-66
2022/06/13 00:57:31;;;;;;;10.13;1.80;;;;;;;;;;4938400;28;20031;-68
2022/06/13 00:59:59;;;;;;;8.15;2.08;;;;;;;;;;4932911;28;20082;-65
2022/06/13 01:02:25;;;;;;;8.32;2.00;;;;;;;;;;4934224;28;20041;-65
2022/06/13 01:04:52;;;;;;;8.80;1.90;;;;;;;;;;4932217;28;20069;-66
2022/06/13 01:07:20;;;;;;;7.18;2.00;;;;;;;;;;4934806;28;20460;-66
2022/06/13 01:12:32;;;;;;;8.50;1.83;;;;;;;;;;4935389;28;20042;-66
2022/06/13 01:15:10;;;;;;;8.75;1.80;;;;;;;;;;4933856;28;20030;-66
2022/06/13 01:17:36;;;;;;;9.48;2.30;;;;;;;;;;4934481;28;20560;-66
2022/06/13 01:20:21;;;;;;;8.35;2.10;;;;;;;;;;4940737;28;20038;-66
2022/06/13 01:23:07;;;;;;;9.18;2.00;;;;;;;;;;4933145;28;20453;-66
2022/06/13 01:25:51;;;;;;;11.60;2.45;;;;;;;;;;4935548;28;20027;-65
2022/06/13 01:28:20;;;;;;;7.10;2.05;;;;;;;;;;4943300;28;20046;-66
2022/06/13 01:31:05;;;;;;;8.02;1.85;;;;;;;;;;4937720;28;20098;-66
2022/06/13 01:33:31;;;;;;;7.07;1.77;;;;;;;;;;4938839;28;20583;-66
2022/06/13 01:35:58;;;;;;;10.82;2.25;;;;;;;;;;4938223;28;20046;-66
2022/06/13 01:38:24;;;;;;;7.82;2.50;;;;;;;;;;4952094;28;20041;-65
2022/06/13 01:41:05;;;;;;;9.82;2.40;;;;;;;;;;4934135;28;20433;-65
2022/06/13 01:43:31;;;;;;;13.57;6.60;;;;;;;;;;4938443;28;20413;-66
2022/06/13 01:46:06;;;;;;;15.43;7.13;;;;;;;;;;4913961;28;20038;-65
2022/06/13 01:48:42;;;;;;;13.93;7.43;;;;;;;;;;4940190;28;20476;-66
2022/06/13 01:51:22;;;;;;;13.05;4.70;;;;;;;;;;4921059;28;20037;-66
2022/06/13 01:53:48;;;;;;;10.77;3.05;;;;;;;;;;4937029;28;20042;-66
2022/06/13 01:56:17;;;;;;;11.93;3.40;;;;;;;;;;4940080;28;20038;-66
2022/06/13 01:59:11;;;;;;;8.15;2.70;;;;;;;;;;4934853;28;20166;-65
2022/06/13 02:01:49;;;;;;;9.35;2.28;;;;;;;;;;4937532;28;20076;-66
2022/06/13 02:04:29;;;;;;;8.00;2.13;;;;;;;;;;4937887;28;20536;-67
2022/06/13 02:07:06;;;;;;;7.40;2.03;;;;;;;;;;4938590;28;20672;-66
2022/06/13 02:09:40;;;;;;;9.80;2.40;;;;;;;;;;4939209;28;20295;-66
2022/06/13 02:12:07;;;;;;;7.60;2.00;;;;;;;;;;4940146;28;20121;-66
2022/06/13 02:14:46;;;;;;;7.65;1.95;;;;;;;;;;4934938;28;20042;-66
2022/06/13 02:17:18;;;;;;;7.82;1.92;;;;;;;;;;4907901;28;20089;-66
2022/06/13 02:19:47;;;;;;;7.30;1.98;;;;;;;;;;4916374;28;20043;-66
2022/06/13 02:22:52;;;;;;;7.38;2.10;;;;;;;;;;4936359;28;20657;-66
2022/06/13 02:25:45;;;;;;;9.88;2.10;;;;;;;;;;4862592;29;20036;-65
2022/06/13 02:28:21;;;;;;;7.43;1.92;;;;;;;;;;4886313;28;20056;-66
2022/06/13 02:30:51;;;;;;;8.73;2.17;;;;;;;;;;4876349;29;20155;-66
2022/06/13 02:33:28;;;;;;;9.38;2.05;;;;;;;;;;4880972;29;20117;-66
2022/06/13 02:35:59;;;;;;;6.78;2.10;;;;;;;;;;4877728;29;20181;-65
2022/06/13 02:38:34;;;;;;;7.38;2.20;;;;;;;;;;4881713;29;20047;-66
2022/06/13 02:41:05;;;;;;;9.38;2.42;;;;;;;;;;4875852;29;20044;-66
2022/06/13 02:43:40;;;;;;;9.88;2.50;;;;;;;;;;4865454;29;20056;-66
2022/06/13 02:46:19;;;;;;;7.50;2.10;;;;;;;;;;4879844;29;20172;-67
2022/06/13 02:48:53;;;;;;;10.80;2.63;;;;;;;;;;4877480;29;20037;-67
2022/06/13 02:51:33;;;;;;;8.00;2.00;;;;;;;;;;4879072;29;20156;-67
2022/06/13 02:54:05;;;;;;;11.60;2.05;;;;;;;;;;4876339;29;20542;-66
2022/06/13 02:56:34;;;;;;;8.20;2.25;;;;;;;;;;4881449;29;20553;-68
2022/06/13 02:59:11;;;;;;;7.55;1.95;;;;;;;;;;4893449;28;20041;-66
2022/06/13 03:01:40;;;;;;;9.05;2.10;;;;;;;;;;4929117;28;20185;-66
2022/06/13 03:04:21;;;;;;;11.00;2.10;;;;;;;;;;4936995;28;20309;-67
2022/06/13 03:07:05;;;;;;;5.15;1.83;;;;;;;;;;4932339;28;20483;-68
2022/06/13 03:09:40;;;;;;;6.95;2.13;;;;;;;;;;4937826;28;20579;-67
2022/06/13 03:12:29;;;;;;;7.90;1.80;;;;;;;;;;4932542;28;20074;-67
2022/06/13 03:14:58;;;;;;;7.25;1.95;;;;;;;;;;4927663;28;21894;-67
2022/06/13 03:17:27;;;;;;;8.52;1.83;;;;;;;;;;4934124;28;20026;-67
2022/06/13 03:20:08;;;;;;;6.07;1.52;;;;;;;;;;4926954;28;20043;-67
2022/06/13 03:22:43;;;;;;;6.78;1.48;;;;;;;;;;4935790;28;20034;-67
2022/06/13 03:25:15;;;;;;;7.68;1.83;;;;;;;;;;4933179;28;20023;-67
2022/06/13 03:27:47;;;;;;;6.80;1.70;;;;;;;;;;4940291;28;20120;-67
2022/06/13 03:30:15;;;;;;;7.78;1.80;;;;;;;;;;4954557;28;20031;-67
2022/06/13 03:32:44;;;;;;;7.57;1.80;;;;;;;;;;4950953;28;20039;-67
2022/06/13 03:35:13;;;;;;;5.38;1.33;;;;;;;;;;4953665;28;20030;-67
2022/06/13 03:37:48;;;;;;;4.30;1.25;;;;;;;;;;4949901;28;20039;-65
2022/06/13 03:40:25;;;;;;;7.05;1.80;;;;;;;;;;4956783;28;20038;-68
2022/06/13 03:42:51;;;;;;;5.50;1.73;;;;;;;;;;4950937;28;20169;-68
2022/06/13 03:45:30;;;;;;;11.38;1.80;;;;;;;;;;4955354;28;20145;-65
2022/06/13 03:48:03;;;;;;;4.25;1.23;;;;;;;;;;4951473;28;20466;-65
2022/06/13 03:50:32;;;;;;;6.38;1.60;;;;;;;;;;4956087;28;20139;-65
2022/06/13 03:53:05;;;;;;;6.13;1.27;;;;;;;;;;4950068;28;20034;-67
2022/06/13 03:55:40;;;;;;;5.55;1.40;;;;;;;;;;4953982;28;20129;-67
2022/06/13 03:58:18;;;;;;;4.70;1.23;;;;;;;;;;4952189;28;20547;-68
2022/06/13 04:00:52;;;;;;;6.75;1.50;;;;;;;;;;4952859;28;20026;-66
2022/06/13 04:03:20;;;;;;;7.72;1.40;;;;;;;;;;4957588;28;20390;-66
2022/06/13 04:06:00;;;;;;;5.53;1.58;;;;;;;;;;4954638;28;20065;-66
2022/06/13 04:08:29;;;;;;;5.00;1.35;;;;;;;;;;4955811;28;20342;-66
2022/06/13 04:11:13;;;;;;;5.95;1.55;;;;;;;;;;4951843;28;20699;-68
2022/06/13 04:14:09;;;;;;;5.25;1.30;;;;;;;;;;4954224;28;20286;-66
2022/06/13 04:16:55;;;;;;;4.53;1.30;;;;;;;;;;4959192;28;20030;-66
2022/06/13 04:19:34;;;;;;;5.60;1.37;;;;;;;;;;4941693;28;20436;-65
2022/06/13 04:22:19;;;;;;;4.18;1.20;;;;;;;;;;4954479;28;20276;-64
2022/06/13 04:24:54;;;;;;;6.53;1.33;;;;;;;;;;4931594;28;20046;-65
2022/06/13 04:27:29;;;;;;;5.60;1.50;;;;;;;;;;4954483;28;20915;-65
2022/06/13 04:30:09;;;;;;;8.70;1.50;;;;;;;;;;4950002;28;20359;-65
2022/06/13 04:32:40;;;;;;;13.90;1.60;;;;;;;;;;4956920;28;20142;-65
2022/06/13 04:35:08;;;;;;;9.95;1.80;;;;;;;;;;4949616;28;20105;-71
2022/06/13 04:37:38;;;;;;;8.48;1.50;;;;;;;;;;4957325;28;20029;-70
2022/06/13 04:40:07;;;;;;;6.65;1.50;;;;;;;;;;4962244;28;20065;-74
2022/06/13 04:42:39;;;;;;;5.25;1.48;;;;;;;;;;4954815;28;20489;-73
2022/06/13 04:45:14;;;;;;;7.13;1.50;;;;;;;;;;4958509;28;20325;-73
2022/06/13 04:47:42;;;;;;;6.10;1.50;;;;;;;;;;4947889;28;20038;-73
2022/06/13 04:50:13;;;;;;;4.88;1.70;;;;;;;;;;4958408;28;20454;-73
2022/06/13 04:52:44;;;;;;;9.05;1.83;;;;;;;;;;4953479;28;20034;-73
2022/06/13 04:55:16;;;;;;;5.13;1.33;;;;;;;;;;4955986;28;20023;-73
2022/06/13 04:57:42;;;;;;;7.65;1.83;;;;;;;;;;4940308;28;20131;-72
2022/06/13 05:00:09;;;;;;;10.82;2.00;;;;;;;;;;4956219;28;20068;-72
2022/06/13 05:02:45;;;;;;;10.35;2.58;;;;;;;;;;4944401;28;20499;-73
2022/06/13 05:05:32;;;;;;;11.27;3.08;;;;;;;;;;4958859;28;20672;-72
2022/06/13 05:07:58;;;;;;;16.75;3.95;;;;;;;;;;4956564;28;20504;-73
2022/06/13 05:10:27;;;;;;;11.98;3.92;;;;;;;;;;4957105;28;20037;-72
2022/06/13 05:12:54;;;;;;;13.05;3.60;;;;;;;;;;4951292;28;20488;-71
2022/06/13 05:15:22;;;;;;;13.60;4.13;;;;;;;;;;4953429;28;20400;-73
2022/06/13 05:18:18;;;;;;;10.15;4.07;;;;;;;;;;4952059;28;20397;-72
2022/06/13 05:20:51;;;;;;;14.02;4.15;;;;;;;;;;4949883;28;20030;-74
2022/06/13 05:23:17;;;;;;;15.65;4.57;;;;;;;;;;4953892;28;20026;-74
2022/06/13 05:25:47;;;;;;;26.35;4.47;;;;;;;;;;4948023;28;20382;-73
2022/06/13 05:28:18;;;;;;;13.30;4.25;;;;;;;;;;4944677;28;20043;-73
2022/06/13 05:30:45;;;;;;;13.07;3.78;;;;;;;;;;4936035;28;20458;-74
2022/06/13 05:33:12;;;;;;;15.52;3.67;;;;;;;;;;4954610;28;20538;-72
2022/06/13 05:35:43;;;;;;;12.85;3.17;;;;;;;;;;4940607;28;20041;-72
2022/06/13 05:38:11;;;;;;;11.07;2.72;;;;;;;;;;4939359;28;20035;-72
2022/06/13 05:40:37;;;;;;;13.50;3.15;;;;;;;;;;4936193;28;20049;-73
2022/06/13 05:43:03;;;;;;;14.77;2.88;;;;;;;;;;4937171;28;20105;-72
2022/06/13 05:45:29;;;;;;;18.38;3.53;;;;;;;;;;4940401;28;20046;-72
2022/06/13 05:47:56;;;;;;;13.20;3.25;;;;;;;;;;4939340;28;22094;-73
2022/06/13 05:50:27;;;;;;;21.48;3.75;;;;;;;;;;4941478;28;20050;-73
2022/06/13 05:52:53;;;;;;;12.05;3.03;;;;;;;;;;4935135;28;20066;-72
2022/06/13 05:55:21;;;;;;;19.75;4.25;;;;;;;;;;4940164;28;20121;-73
2022/06/13 05:57:48;;;;;;;33.33;6.30;;;;;;;;;;4931564;28;20430;-73
2022/06/13 06:00:17;;;;;;;26.90;5.78;;;;;;;;;;4943178;28;20026;-73
2022/06/13 06:02:44;;;;;;;26.48;4.80;;;;;;;;;;4944129;28;20587;-73
2022/06/13 06:05:12;;;;;;;14.93;4.07;;;;;;;;;;4938679;28;20442;-72
2022/06/13 06:07:40;;;;;;;17.30;3.50;;;;;;;;;;4930262;28;20477;-72
2022/06/13 06:10:08;;;;;;;19.20;3.50;;;;;;;;;;4935777;28;20070;-74
2022/06/13 06:12:38;;;;;;;16.77;5.22;;;;;;;;;;4933965;28;20070;-72
2022/06/13 06:15:10;;;;;;;16.88;4.07;;;;;;;;;;4933522;28;20559;-72
2022/06/13 06:17:38;;;;;;;14.65;3.38;;;;;;;;;;4938784;28;20034;-72
2022/06/13 06:20:06;;;;;;;16.98;3.15;;;;;;;;;;4944897;28;21522;-67
2022/06/13 06:22:49;;;;;;;18.17;3.88;;;;;;;;;;4956432;28;20146;-72
2022/06/13 06:25:20;;;;;;;25.02;4.68;;;;;;;;;;4936086;28;20055;-67
2022/06/13 06:27:47;;;;;;;23.63;5.60;;;;;;;;;;4941792;28;20507;-67
2022/06/13 06:30:17;;;;;;;22.38;6.45;;;;;;;;;;4956194;28;20030;-67
2022/06/13 06:32:46;;;;;;;17.73;4.50;;;;;;;;;;4941520;28;20138;-67
2022/06/13 06:35:14;;;;;;;18.38;4.07;;;;;;;;;;4948287;28;20029;-67
2022/06/13 06:37:47;;;;;;;18.13;4.07;;;;;;;;;;4949185;28;20030;-67
2022/06/13 06:40:15;;;;;;;13.05;3.45;;;;;;;;;;4953144;28;20112;-67
2022/06/13 06:42:43;;;;;;;16.75;3.03;;;;;;;;;;4948007;28;20535;-67
2022/06/13 06:45:11;;;;;;;16.35;3.25;;;;;;;;;;4952292;28;20058;-67
2022/06/13 06:47:39;;;;;;;10.70;2.53;;;;;;;;;;4945431;28;20928;-67
2022/06/13 06:50:11;;;;;;;13.50;3.00;;;;;;;;;;4952193;28;20130;-67
2022/06/13 06:52:38;;;;;;;25.73;4.28;;;;;;;;;;4950469;28;20058;-67
2022/06/13 07:00:37;;;;;;;12.65;2.40;;;;;;;;;;4953585;28;20117;-68
2022/06/13 07:03:03;;;;;;;11.35;2.45;;;;;;;;;;4958956;28;20390;-67
2022/06/13 07:05:29;;;;;;;10.60;2.22;;;;;;;;;;4956852;28;21407;-67
2022/06/13 07:07:55;;;;;;;9.65;1.83;;;;;;;;;;4952151;28;20030;-67
2022/06/13 07:10:21;;;;;;;9.80;1.75;;;;;;;;;;4956374;28;20031;-67
2022/06/13 07:12:49;;;;;;;11.93;1.52;;;;;;;;;;4952070;28;20038;-67
2022/06/13 07:15:15;;;;;;;11.00;1.77;;;;;;;;;;4956188;28;20030;-69
2022/06/13 07:17:41;;;;;;;10.32;1.77;;;;;;;;;;4946765;28;20039;-67
2022/06/13 07:20:07;;;;;;;12.65;2.30;;;;;;;;;;4954498;28;20555;-67
2022/06/13 07:22:34;;;;;;;14.57;2.00;;;;;;;;;;4954448;28;20026;-67
2022/06/13 07:25:00;;;;;;;7.97;2.30;;;;;;;;;;4953827;28;20030;-67
2022/06/13 07:27:26;;;;;;;7.47;1.63;;;;;;;;;;4954821;28;20104;-67
2022/06/13 07:29:53;;;;;;;9.52;1.70;;;;;;;;;;4941546;28;20038;-67
2022/06/13 07:32:20;;;;;;;10.70;1.90;;;;;;;;;;4940028;28;20038;-67
2022/06/13 07:34:48;;;;;;;8.95;1.70;;;;;;;;;;4935063;28;20089;-67
2022/06/13 07:38:16;;;;;;;14.38;2.30;;;;;;;;;;4937596;28;20040;-67
2022/06/13 07:40:03;;;;;;;13.90;2.15;;;;;;;;;;4939627;28;20819;-67
2022/06/13 07:42:32;;;;;;;8.07;1.65;;;;;;;;;;4944107;28;20062;-68
2022/06/13 07:44:59;;;;;;;8.45;1.83;;;;;;;;;;4939203;28;20031;-67
2022/06/13 07:47:25;;;;;;;7.22;1.30;;;;;;;;;;4940728;28;20043;-67
2022/06/13 07:49:51;;;;;;;9.43;1.67;;;;;;;;;;4936401;28;20481;-69
2022/06/13 07:52:17;;;;;;;6.40;1.50;;;;;;;;;;4943160;28;20464;-70
2022/06/13 07:54:44;;;;;;;6.72;1.60;;;;;;;;;;4963606;28;20145;-66
2022/06/13 07:57:12;;;;;;;5.80;1.33;;;;;;;;;;4946150;28;20035;-66
2022/06/13 07:59:40;;;;;;;5.38;1.10;;;;;;;;;;4926801;28;20448;-66
2022/06/13 08:02:14;;;;;;;7.55;1.40;;;;;;;;;;4950374;28;20050;-66
2022/06/13 08:04:45;;;;;;;11.65;1.27;;;;;;;;;;4943324;28;20517;-67
2022/06/13 08:07:15;;;;;;;7.47;1.20;;;;;;;;;;4945681;28;20090;-66
2022/06/13 08:09:42;;;;;;;4.25;0.90;;;;;;;;;;4937123;28;20038;-66
2022/06/13 08:12:12;;;;;;;4.53;1.00;;;;;;;;;;4949137;28;20041;-65
2022/06/13 08:14:45;;;;;;;3.55;1.25;;;;;;;;;;4940731;28;20540;-66
2022/06/13 08:17:13;;;;;;;4.70;1.33;;;;;;;;;;4948685;28;20022;-66
2022/06/13 08:19:40;;;;;;;8.10;1.33;;;;;;;;;;4942651;28;20039;-66
2022/06/13 08:22:08;;;;;;;7.28;1.27;;;;;;;;;;4946609;28;20031;-66
2022/06/13 08:24:36;;;;;;;5.97;1.23;;;;;;;;;;4944452;28;20576;-66
2022/06/13 08:27:03;;;;;;;5.25;1.20;;;;;;;;;;4941042;28;20035;-66
2022/06/13 08:29:31;;;;;;;4.10;1.10;;;;;;;;;;4962992;28;20109;-66
2022/06/13 08:31:58;;;;;;;9.40;1.23;;;;;;;;;;4951491;28;20042;-66
2022/06/13 08:34:26;;;;;;;5.90;1.30;;;;;;;;;;4942934;28;20452;-66
2022/06/13 08:36:53;;;;;;;6.82;1.30;;;;;;;;;;4960069;28;20136;-66
2022/06/13 08:39:21;;;;;;;7.57;1.20;;;;;;;;;;4959851;28;20644;-66
2022/06/13 08:42:02;;;;;;;4.07;0.93;;;;;;;;;;4958043;28;20403;-66
2022/06/13 08:44:47;;;;;;;11.18;1.30;;;;;;;;;;4958210;28;20026;-66
2022/06/13 08:47:33;;;;;;;5.93;1.20;;;;;;;;;;4959110;28;20030;-66
2022/06/13 08:50:17;;;;;;;7.55;1.48;;;;;;;;;;4957838;28;20041;-66
2022/06/13 08:53:01;;;;;;;5.40;1.20;;;;;;;;;;4950361;28;20038;-66
2022/06/13 08:55:30;;;;;;;5.63;1.20;;;;;;;;;;4959761;28;20087;-68
2022/06/13 08:58:09;;;;;;;9.38;1.50;;;;;;;;;;4957700;28;20038;-68
2022/06/13 09:00:36;;;;;;;8.35;1.60;;;;;;;;;;4956740;28;20392;-67
2022/06/13 09:03:09;;;;;;;10.65;2.08;;;;;;;;;;4959642;28;20042;-68
2022/06/13 09:05:39;;;;;;;8.07;1.55;;;;;;;;;;4953455;28;20030;-66
2022/06/13 09:08:11;;;;;;;7.18;1.40;;;;;;;;;;4945340;28;20539;-66
2022/06/13 09:11:01;;;;;;;5.10;1.10;;;;;;;;;;4958088;28;20069;-66
2022/06/13 09:13:32;;;;;;;6.13;1.30;;;;;;;;;;4904411;29;20186;-68
2022/06/13 09:16:11;;;;;;;7.43;1.20;;;;;;;;;;4898047;29;20108;-66
2022/06/13 09:19:13;;;;;;;6.38;1.23;;;;;;;;;;4895244;29;20053;-66
2022/06/13 09:21:46;;;;;;;4.88;1.23;;;;;;;;;;4858932;29;20044;-65
2022/06/13 09:24:15;;;;;;;4.30;1.08;;;;;;;;;;4859555;29;20202;-66
2022/06/13 09:26:48;;;;;;;7.88;1.20;;;;;;;;;;4854834;29;20076;-68
2022/06/13 09:29:14;;;;;;;6.43;1.33;;;;;;;;;;4860440;29;20562;-66
2022/06/13 09:31:40;;;;;;;5.13;1.10;;;;;;;;;;4857769;29;20029;-66
2022/06/13 09:34:11;;;;;;;5.88;1.20;;;;;;;;;;4862313;29;20498;-67
2022/06/13 09:36:41;;;;;;;3.63;1.00;;;;;;;;;;4847321;29;20063;-66
2022/06/13 09:39:09;;;;;;;5.38;1.20;;;;;;;;;;4860762;29;20036;-67
2022/06/13 09:41:44;;;;;;;5.88;1.20;;;;;;;;;;4861395;29;20130;-67
2022/06/13 09:44:10;;;;;;;9.75;1.25;;;;;;;;;;4861284;29;20104;-67
2022/06/13 09:46:39;;;;;;;3.75;1.00;;;;;;;;;;4856082;29;20098;-67
2022/06/13 09:49:36;;;;;;;5.65;1.20;;;;;;;;;;4847854;29;20048;-67
2022/06/13 09:52:21;;;;;;;5.60;1.00;;;;;;;;;;4833616;29;20591;-68
2022/06/13 09:54:54;;;;;;;3.85;1.00;;;;;;;;;;4847375;28;20037;-67
2022/06/13 09:57:36;;;;;;;5.35;1.20;;;;;;;;;;4958811;28;20120;-67
2022/06/13 10:00:19;;;;;;;11.05;1.33;;;;;;;;;;4959157;28;20204;-67
2022/06/13 10:02:45;;;;;;;9.45;1.40;;;;;;;;;;4955355;28;20035;-67
2022/06/13 10:05:31;;;;;;;6.22;1.10;;;;;;;;;;4955666;28;20065;-67
2022/06/13 10:08:11;;;;;;;4.68;1.02;;;;;;;;;;4956857;28;20055;-65
2022/06/13 10:11:05;;;;;;;5.28;1.10;;;;;;;;;;4951987;28;20472;-65
2022/06/13 10:13:37;;;;;;;4.55;1.10;;;;;;;;;;4949322;28;20154;-65
2022/06/13 10:16:22;;;;;;;5.15;1.10;;;;;;;;;;4936773;28;20092;-65
2022/06/13 10:19:06;;;;;;;5.78;1.30;;;;;;;;;;4954173;28;20449;-66
2022/06/13 10:21:42;;;;;;;6.40;1.00;;;;;;;;;;4960838;28;20031;-66
2022/06/13 10:24:17;;;;;;;5.63;1.00;;;;;;;;;;4956066;28;20124;-65
2022/06/13 10:27:03;;;;;;;7.80;1.50;;;;;;;;;;4956307;28;20034;-66
2022/06/13 10:29:31;;;;;;;;;;;;;;;;;;4962787;28;20042;-66
2022/06/13 10:32:00;;;;;;;7.03;1.20;;;;;;;;;;4955297;28;19948;-67
2022/06/13 10:34:45;;;;;;;8.68;1.40;;;;;;;;;;4957168;28;20035;-66
2022/06/13 10:37:31;;;;;;;7.67;1.50;;;;;;;;;;4965610;28;20031;-71
2022/06/13 10:40:01;;;;;;;10.23;1.33;;;;;;;;;;4951423;28;20116;-71
2022/06/13 10:42:29;;;;;;;9.98;1.20;;;;;;;;;;4958832;28;20264;-71
2022/06/13 10:44:57;;;;;;;13.88;1.65;;;;;;;;;;4951717;28;22121;-72
2022/06/13 10:47:39;;;;;;;9.57;1.70;;;;;;;;;;4957813;28;20062;-71
2022/06/13 10:50:14;;;;;;;8.82;1.42;;;;;;;;;;4962090;28;20041;-71
2022/06/13 10:52:45;;;;;;;7.13;1.30;;;;;;;;;;4953473;28;20579;-71
2022/06/13 10:55:13;;;;;;;6.10;1.25;;;;;;;;;;4955643;28;20134;-73
2022/06/13 10:57:42;;;;;;;6.50;1.17;;;;;;;;;;4957633;28;20474;-70
2022/06/13 11:00:16;;;;;;;8.25;1.30;;;;;;;;;;4958155;28;20412;-70
2022/06/13 11:02:43;;;;;;;5.03;1.38;;;;;;;;;;4953150;28;20392;-71
2022/06/13 11:05:29;;;;;;;7.28;1.25;;;;;;;;;;4959339;28;20033;-70
2022/06/13 11:08:00;;;;;;;8.32;1.10;;;;;;;;;;4953407;28;22572;-70
2022/06/13 11:10:33;;;;;;;6.43;1.10;;;;;;;;;;4956176;28;20069;-73
2022/06/13 11:13:00;;;;;;;7.80;1.20;;;;;;;;;;4926511;28;20053;-70
2022/06/13 11:23:56;;;;;;;4.85;1.20;;;;;;;;;;4944029;28;20070;-70
2022/06/13 11:29:13;;;;;;;6.18;1.15;;;;;;;;;;4934663;28;20113;-69
2022/06/13 11:31:48;;;;;;;7.32;1.30;;;;;;;;;;4926788;28;20700;-69
2022/06/13 11:34:22;;;;;;;7.07;1.15;;;;;;;;;;4926959;28;20468;-69
2022/06/13 11:37:04;;;;;;;3.15;0.90;;;;;;;;;;4926464;28;20121;-70
2022/06/13 11:39:36;;;;;;;4.03;1.25;;;;;;;;;;4931631;28;20039;-70
2022/06/13 11:42:02;;;;;;;4.95;1.52;;;;;;;;;;4930682;28;20110;-70
2022/06/13 11:44:28;;;;;;;6.40;1.20;;;;;;;;;;4928666;28;20035;-69
2022/06/13 11:46:54;;;;;;;4.60;0.95;;;;;;;;;;4925522;28;20373;-69
2022/06/13 11:49:37;;;;;;;5.25;1.08;;;;;;;;;;4924677;28;20038;-70
2022/06/13 11:52:13;;;;;;;7.20;1.40;;;;;;;;;;4930737;28;20190;-69
2022/06/13 11:54:57;;;;;;;8.75;2.05;;;;;;;;;;4929848;28;20500;-70
2022/06/13 11:57:40;;;;;;;6.28;1.30;;;;;;;;;;4927767;28;20379;-70
2022/06/13 12:00:32;;;;;;;4.63;1.20;;;;;;;;;;4929657;28;20050;-70
2022/06/13 12:03:20;;;;;;;9.98;2.20;;;;;;;;;;4890657;28;20042;-70
2022/06/13 12:05:56;;;;;;;5.68;1.50;;;;;;;;;;4924289;28;20069;-69
2022/06/13 12:08:26;;;;;;;5.20;1.30;;;;;;;;;;4929069;28;20348;-69
2022/06/13 12:11:00;;;;;;;18.30;2.88;;;;;;;;;;4925593;28;20101;-70
2022/06/13 12:13:29;;;;;;;12.10;1.93;;;;;;;;;;4932783;28;20037;-69
2022/06/13 12:15:59;;;;;;;5.88;1.20;;;;;;;;;;4919265;28;20183;-69
2022/06/13 12:18:47;;;;;;;5.10;1.30;;;;;;;;;;4937257;28;20043;-68
2022/06/13 12:21:22;;;;;;;5.75;1.20;;;;;;;;;;4940578;28;20039;-69
2022/06/13 12:23:58;;;;;;;5.55;1.25;;;;;;;;;;4934464;28;20086;-69
2022/06/13 12:26:33;;;;;;;4.03;0.98;;;;;;;;;;4936268;28;20083;-69
2022/06/13 12:29:05;;;;;;;4.32;0.95;;;;;;;;;;4951479;28;20526;-69
2022/06/13 12:31:50;;;;;;;5.45;1.10;;;;;;;;;;4953226;28;20034;-69
2022/06/13 12:34:31;;;;;;;5.63;0.80;;;;;;;;;;4957686;28;20046;-69
2022/06/13 12:37:37;;;;;;;6.78;1.38;;;;;;;;;;4962886;28;20030;-68
2022/06/13 12:40:22;;;;;;;7.43;1.77;;;;;;;;;;4869754;29;20083;-68
2022/06/13 12:43:00;;;;;;;5.85;1.42;;;;;;;;;;4881006;29;20024;-67
2022/06/13 12:45:45;;;;;;;11.63;1.95;;;;;;;;;;4883905;29;20060;-68
2022/06/13 12:48:39;;;;;;;9.35;2.10;;;;;;;;;;4882262;29;20036;-67
2022/06/13 12:51:11;;;;;;;6.75;1.08;;;;;;;;;;4879295;29;20043;-68
2022/06/13 12:54:11;;;;;;;4.88;1.00;;;;;;;;;;4882003;29;20099;-67
2022/06/13 12:56:43;;;;;;;4.70;0.85;;;;;;;;;;4883360;29;20044;-67
2022/06/13 12:59:28;;;;;;;4.97;0.93;;;;;;;;;;4862145;29;20154;-67
2022/06/13 13:02:12;;;;;;;4.30;0.88;;;;;;;;;;4880331;29;20123;-67
2022/06/13 13:04:39;;;;;;;5.35;1.10;;;;;;;;;;4876078;29;20083;-67
2022/06/13 13:07:09;;;;;;;4.55;0.95;;;;;;;;;;4880789;29;20497;-67
2022/06/13 13:09:53;;;;;;;4.43;0.98;;;;;;;;;;4880338;29;20435;-66
2022/06/13 13:12:22;;;;;;;6.03;1.00;;;;;;;;;;4932463;28;20038;-67
2022/06/13 13:15:01;;;;;;;3.28;0.80;;;;;;;;;;4950925;28;20042;-66
2022/06/13 13:17:46;;;;;;;4.72;0.98;;;;;;;;;;4954833;28;20093;-67
2022/06/13 13:20:13;;;;;;;;;;;;;;;;;;4940662;28;20030;-67
2022/06/13 13:22:53;;;;;;;5.00;0.88;;;;;;;;;;4934051;28;19921;-67
2022/06/13 13:25:38;;;;;;;5.43;0.85;;;;;;;;;;4952919;28;20393;-67
2022/06/13 13:28:07;;;;;;;3.33;0.82;;;;;;;;;;4950264;28;20038;-68
2022/06/13 13:30:48;;;;;;;4.50;1.00;;;;;;;;;;4951468;28;20066;-68
2022/06/13 13:33:14;;;;;;;6.95;1.10;;;;;;;;;;4956089;28;20086;-67
2022/06/13 13:35:45;;;;;;;3.30;0.90;;;;;;;;;;4948868;28;20034;-67
2022/06/13 13:38:37;;;;;;;4.47;0.80;;;;;;;;;;4953658;28;20030;-69
2022/06/13 13:41:10;;;;;;;3.92;0.70;;;;;;;;;;4950628;28;20144;-69
2022/06/13 13:43:39;;;;;;;7.40;1.00;;;;;;;;;;4949201;28;20026;-67
2022/06/13 13:46:11;;;;;;;6.97;1.27;;;;;;;;;;4938915;28;20030;-70
2022/06/13 13:48:46;;;;;;;7.13;1.00;;;;;;;;;;4943704;28;21004;-70
2022/06/13 13:51:17;;;;;;;6.40;1.33;;;;;;;;;;4949986;28;20041;-68
2022/06/13 13:53:48;;;;;;;5.25;1.15;;;;;;;;;;4948427;28;20034;-69
2022/06/13 13:56:26;;;;;;;7.80;1.08;;;;;;;;;;4952813;28;20315;-68
2022/06/13 13:58:54;;;;;;;5.32;1.23;;;;;;;;;;4946058;28;20031;-69
2022/06/13 14:01:36;;;;;;;6.00;1.20;;;;;;;;;;4951723;28;20030;-69
2022/06/13 14:04:21;;;;;;;6.60;1.20;;;;;;;;;;4953912;28;20380;-69
2022/06/13 14:06:48;;;;;;;;;;;;;;;;;;4948199;28;20038;-69
2022/06/13 14:09:20;;;;;;;7.10;1.20;;;;;;;;;;4948934;28;19945;-69
2022/06/13 14:12:20;;;;;;;5.00;0.80;;;;;;;;;;4944348;28;20022;-69
2022/06/13 14:15:01;;;;;;;6.75;1.20;;;;;;;;;;4893700;29;20055;-71
2022/06/13 14:17:29;;;;;;;7.18;1.10;;;;;;;;;;4894828;29;20044;-68
2022/06/13 14:20:05;;;;;;;5.95;1.05;;;;;;;;;;4891736;29;20105;-68
2022/06/13 14:22:43;;;;;;;5.25;1.00;;;;;;;;;;4893320;29;20042;-67
2022/06/13 14:25:24;;;;;;;6.18;1.00;;;;;;;;;;4881803;29;20040;-67
2022/06/13 14:28:04;;;;;;;5.80;1.05;;;;;;;;;;4881698;29;20730;-65
2022/06/13 14:36:33;;;;;;;;;;;;;;;;;;4896899;29;20767;-65
2022/06/13 14:39:03;;;;;;;4.32;0.90;;;;;;;;;;4895547;29;20643;-65
2022/06/13 14:41:39;;;;;;;6.63;1.20;;;;;;;;;;4901955;29;20040;-66
2022/06/13 14:44:44;;;;;;;3.08;0.93;;;;;;;;;;4903467;29;21049;-67
2022/06/13 14:47:21;;;;;;;4.75;0.95;;;;;;;;;;4866450;29;21116;-69
2022/06/13 14:49:56;;;;;;;5.10;0.80;;;;;;;;;;4868103;29;20427;-69
2022/06/13 14:52:29;;;;;;;6.57;1.00;;;;;;;;;;4877947;29;20611;-68
2022/06/13 14:55:04;;;;;;;14.00;1.00;;;;;;;;;;4875772;29;20446;-68
2022/06/13 14:57:34;;;;;;;5.22;0.90;;;;;;;;;;4867571;29;20025;-69
2022/06/13 15:00:09;;;;;;;4.20;1.00;;;;;;;;;;4875481;29;20508;-70
2022/06/13 15:03:04;;;;;;;5.05;0.82;;;;;;;;;;4874063;29;20673;-69
2022/06/13 15:05:31;;;;;;;5.00;0.90;;;;;;;;;;4880967;29;20073;-69
2022/06/13 15:08:12;;;;;;;5.97;1.00;;;;;;;;;;4877240;29;20583;-69
2022/06/13 15:10:58;;;;;;;5.10;0.85;;;;;;;;;;4874229;29;20159;-70
2022/06/13 15:13:26;;;;;;;3.65;0.70;;;;;;;;;;4878148;29;20147;-69
2022/06/13 15:15:55;;;;;;;5.53;1.00;;;;;;;;;;4871760;29;20530;-69
2022/06/13 15:18:23;;;;;;;5.85;0.88;;;;;;;;;;4911690;28;20102;-70
2022/06/13 15:20:50;;;;;;;4.22;0.90;;;;;;;;;;4929768;28;20046;-69
2022/06/13 15:23:22;;;;;;;4.60;0.75;;;;;;;;;;4931631;28;20434;-68
2022/06/13 15:25:49;;;;;;;4.80;0.88;;;;;;;;;;4930589;28;20375;-69
2022/06/13 15:28:17;;;;;;;6.20;1.00;;;;;;;;;;4934653;28;20126;-69
2022/06/13 15:30:46;;;;;;;4.55;0.88;;;;;;;;;;4934612;28;20049;-69
2022/06/13 15:33:20;;;;;;;4.20;0.82;;;;;;;;;;4935293;28;20031;-69
2022/06/13 15:35:46;;;;;;;7.63;1.00;;;;;;;;;;4928755;28;20523;-68
2022/06/13 15:38:22;;;;;;;5.68;0.80;;;;;;;;;;4934962;28;20027;-68
2022/06/13 15:40:50;;;;;;;4.45;0.80;;;;;;;;;;4927247;28;20041;-68
2022/06/13 15:43:18;;;;;;;4.15;0.93;;;;;;;;;;4935756;28;20483;-68